createdAt,value
2023-04-10T00:01:36.079Z,98509.88
2023-04-10T00:05:40.761Z,98496.69
2023-04-10T00:09:44.364Z,98489.75
2023-04-10T00:13:47.527Z,98497.19
2023-04-10T00:17:55.446Z,98491.91
2023-04-10T00:22:00.899Z,98495.31
2023-04-10T00:26:04.208Z,98482.59
2023-04-10T00:30:09.225Z,98479.41
2023-04-10T00:34:14.159Z,98485.63
2023-04-10T00:38:19.053Z,98477.38
2023-04-10T00:42:22.590Z,98478.66
2023-04-10T00:46:26.439Z,98483.50
2023-04-10T00:50:29.813Z,98481.38
2023-04-10T00:54:36.514Z,98475.59
2023-04-10T00:58:40.203Z,98478.63
2023-04-10T01:02:43.766Z,98471.47
2023-04-10T01:06:58.725Z,98482.03
2023-04-10T01:11:09.448Z,98478.25
2023-04-10T01:15:14.840Z,98478.69
2023-04-10T01:19:28.104Z,98480.78
2023-04-10T01:23:55.444Z,98478.66
2023-04-10T01:28:13.162Z,98465.22
2023-04-10T01:32:20.619Z,98469.09
2023-04-10T01:36:30.042Z,98463.53
2023-04-10T01:40:34.345Z,98470.09
2023-04-10T01:44:40.271Z,98474.06
2023-04-10T01:48:46.410Z,98464.16
2023-04-10T01:52:50.507Z,98465.53
2023-04-10T01:56:53.876Z,98464.31
2023-04-10T02:00:57.210Z,98467.34
2023-04-10T02:05:02.201Z,98468.72
2023-04-10T02:09:14.238Z,98464.31
2023-04-10T02:13:22.333Z,98469.50
2023-04-10T02:17:30.258Z,98470.59
2023-04-10T02:21:35.162Z,98463.97
2023-04-10T02:25:38.656Z,98459.06
2023-04-10T02:29:41.685Z,98460.09
2023-04-10T02:33:45.113Z,98458.53
2023-04-10T02:37:51.039Z,98468.00
2023-04-10T02:41:54.548Z,98464.56
2023-04-10T02:45:57.669Z,98456.72
2023-04-10T02:50:01.204Z,98454.13
2023-04-10T02:54:06.216Z,98461.66
2023-04-10T02:58:09.898Z,98472.63
2023-04-10T03:02:13.204Z,98459.50
2023-04-10T03:06:16.842Z,98463.38
2023-04-10T03:10:21.430Z,98463.81
2023-04-10T03:14:24.828Z,98468.50
2023-04-10T03:18:28.143Z,98467.13
2023-04-10T03:22:32.704Z,98448.56
2023-04-10T03:26:37.382Z,98463.47
2023-04-10T03:30:40.744Z,98457.69
2023-04-10T03:34:43.765Z,98456.13
2023-04-10T03:38:46.982Z,98447.78
2023-04-10T03:42:51.385Z,98452.38
2023-04-10T03:46:55.082Z,98454.44
2023-04-10T03:50:58.200Z,98459.03
2023-04-10T03:55:01.391Z,98475.69
2023-04-10T03:59:06.199Z,98462.25
2023-04-10T04:03:09.573Z,98474.66
2023-04-10T04:07:14.154Z,98477.53
2023-04-10T04:11:17.511Z,98482.13
2023-04-10T04:15:24.027Z,98480.63
2023-04-10T04:19:27.532Z,98478.38
2023-04-10T04:23:30.589Z,98481.22
2023-04-10T04:27:34.174Z,98493.31
2023-04-10T04:31:39.190Z,98495.19
2023-04-10T04:35:42.774Z,98493.59
2023-04-10T04:39:46.081Z,98490.22
2023-04-10T04:43:50.144Z,98502.06
2023-04-10T04:47:54.814Z,98507.84
2023-04-10T04:51:57.886Z,98512.00
2023-04-10T04:56:00.979Z,98505.75
2023-04-10T05:00:04.325Z,98513.91
2023-04-10T05:04:08.860Z,98505.66
2023-04-10T05:08:12.332Z,98510.97
2023-04-10T05:12:15.621Z,98521.47
2023-04-10T05:16:18.878Z,98531.00
2023-04-10T05:20:23.875Z,98526.75
2023-04-10T05:24:27.636Z,98533.81
2023-04-10T05:28:31.245Z,98527.09
2023-04-10T05:32:34.503Z,98541.16
2023-04-10T05:36:39.251Z,98533.75
2023-04-10T05:40:46.119Z,98528.13
2023-04-10T05:44:49.427Z,98528.44
2023-04-10T05:48:53.518Z,98533.22
2023-04-10T05:52:58.531Z,98533.38
2023-04-10T05:57:02.411Z,98532.66
2023-04-10T06:01:06.198Z,98535.50
2023-04-10T06:05:10.053Z,98532.09
2023-04-10T06:09:15.070Z,98536.09
2023-04-10T06:13:18.535Z,98535.88
2023-04-10T06:17:22.028Z,98540.09
2023-04-10T06:21:25.376Z,98543.22
2023-04-10T06:25:29.964Z,98537.72
2023-04-10T06:29:33.139Z,98542.53
2023-04-10T06:33:37.283Z,98550.66
2023-04-10T06:37:40.715Z,98543.38
2023-04-10T06:41:45.309Z,98545.16
2023-04-10T06:45:48.799Z,98555.38
2023-04-10T06:49:52.143Z,98555.25
2023-04-10T06:53:55.630Z,98558.38
2023-04-10T06:58:00.241Z,98557.53
2023-04-10T07:02:05.111Z,98555.16
2023-04-10T07:06:08.971Z,98559.91
2023-04-10T07:10:13.408Z,98560.47
2023-04-10T07:14:17.990Z,98566.09
2023-04-10T07:18:21.226Z,98562.22
2023-04-10T07:22:24.161Z,98565.94
2023-04-10T07:26:27.226Z,98566.13
2023-04-10T07:30:31.925Z,98567.09
2023-04-10T07:34:35.446Z,98561.22
2023-04-10T07:38:38.928Z,98562.50
2023-04-10T07:42:42.461Z,98565.84
2023-04-10T07:46:47.602Z,98554.13
2023-04-10T07:50:51.032Z,98553.03
2023-04-10T07:54:54.167Z,98558.28
2023-04-10T07:58:57.784Z,98552.06
2023-04-10T08:03:02.726Z,98556.09
2023-04-10T08:07:06.375Z,98554.91
2023-04-10T08:11:24.900Z,98554.84
2023-04-10T08:15:28.235Z,98555.06
2023-04-10T08:19:32.905Z,98554.25
2023-04-10T08:23:36.520Z,98553.88
2023-04-10T08:27:39.568Z,98548.16
2023-04-10T08:31:43.336Z,98546.94
2023-04-10T08:35:50.201Z,98545.00
2023-04-10T08:39:53.729Z,98545.00
2023-04-10T08:43:58.240Z,98549.09
2023-04-10T08:48:04.242Z,98544.38
2023-04-10T08:52:10.843Z,98537.78
2023-04-10T08:56:15.437Z,98535.97
2023-04-10T09:04:44.922Z,98527.66
2023-04-10T09:08:49.308Z,98533.13
2023-04-10T09:12:53.712Z,98516.50
2023-04-10T09:17:13.098Z,98515.09
2023-04-10T09:21:18.353Z,98517.94
2023-04-10T09:25:39.030Z,98507.25
2023-04-10T09:29:48.937Z,98508.13
2023-04-10T09:34:09.222Z,98511.75
2023-04-10T09:38:17.733Z,98504.78
2023-04-10T09:42:31.714Z,98504.22
2023-04-10T09:46:35.481Z,98499.09
2023-04-10T09:50:40.418Z,98500.66
2023-04-10T09:54:43.758Z,98486.09
2023-04-10T09:58:48.790Z,98475.94
2023-04-10T10:02:53.994Z,98469.38
2023-04-10T10:06:57.161Z,98451.31
2023-04-10T10:11:03.920Z,98451.78
2023-04-10T10:15:15.843Z,98439.47
2023-04-10T10:19:25.088Z,98441.47
2023-04-10T10:23:29.058Z,98428.31
2023-04-10T10:27:33.354Z,98426.66
2023-04-10T10:31:39.017Z,98424.63
2023-04-10T10:35:43.440Z,98413.56
2023-04-10T10:39:55.242Z,98412.66
2023-04-10T10:44:10.076Z,98407.97
2023-04-10T10:48:15.558Z,98398.34
2023-04-10T10:52:38.799Z,98394.59
2023-04-10T10:56:42.309Z,98393.34
2023-04-10T11:01:10.074Z,98381.50
2023-04-10T11:05:55.644Z,98374.00
2023-04-10T11:09:59.787Z,98366.63
2023-04-10T11:14:29.700Z,98363.94
2023-04-10T11:19:14.944Z,98361.50
2023-04-10T11:23:21.286Z,98355.88
2023-04-10T11:27:41.717Z,98350.94
2023-04-10T11:31:45.826Z,98327.88
2023-04-10T11:35:49.274Z,98335.75
2023-04-10T11:40:06.302Z,98326.50
2023-04-10T11:44:11.230Z,98318.06
2023-04-10T11:48:14.278Z,98310.00
2023-04-10T11:52:26.930Z,98302.84
2023-04-10T11:56:31.965Z,98287.56
2023-04-10T12:00:35.414Z,98292.59
2023-04-10T12:04:40.270Z,98278.03
2023-04-10T12:08:46.298Z,98272.19
2023-04-10T12:12:53.230Z,98284.06
2023-04-10T12:16:57.031Z,98264.63
2023-04-10T12:21:01.367Z,98260.41
2023-04-10T12:25:07.552Z,98254.16
2023-04-10T12:29:11.939Z,98249.34
2023-04-10T12:33:16.709Z,98244.72
2023-04-10T12:37:20.596Z,98241.53
2023-04-10T12:41:25.856Z,98236.69
2023-04-10T12:50:09.203Z,98229.66
2023-04-10T12:54:12.427Z,98217.84
2023-04-10T12:58:20.434Z,98213.75
2023-04-10T13:02:24.981Z,98208.25
2023-04-10T13:06:30.493Z,98202.41
2023-04-10T13:10:33.544Z,98201.19
2023-04-10T13:14:37.105Z,98191.41
2023-04-10T13:18:40.412Z,98185.28
2023-04-10T13:22:45.484Z,98175.16
2023-04-10T13:26:50.201Z,98173.91
2023-04-10T13:30:54.106Z,98176.75
2023-04-10T13:34:57.503Z,98158.84
2023-04-10T13:39:02.412Z,98156.41
2023-04-10T13:43:06.791Z,98148.28
2023-04-10T13:47:10.358Z,98134.25
2023-04-10T13:51:13.550Z,98129.38
2023-04-10T13:55:18.599Z,98131.75
2023-04-10T13:59:22.077Z,98124.59
2023-04-10T14:03:25.842Z,98118.66
2023-04-10T14:07:29.164Z,98102.94
2023-04-10T14:11:33.814Z,98090.28
2023-04-10T14:15:36.862Z,98083.34
2023-04-10T14:19:40.567Z,98077.06
2023-04-10T14:23:43.452Z,98077.28
2023-04-10T14:27:48.085Z,98064.22
2023-04-10T14:31:57.481Z,98053.38
2023-04-10T14:36:01.776Z,98055.34
2023-04-10T14:40:05.961Z,98049.59
2023-04-10T14:44:10.873Z,98052.34
2023-04-10T14:48:14.447Z,98043.34
2023-04-10T14:52:18.986Z,98039.38
2023-04-10T14:56:22.194Z,98048.06
2023-04-10T15:00:27.066Z,98034.06
2023-04-10T15:04:30.089Z,98028.31
2023-04-10T15:08:33.231Z,98022.66
2023-04-10T15:12:36.134Z,98021.09
2023-04-10T15:16:41.040Z,98024.59
2023-04-10T15:20:44.531Z,98021.19
2023-04-10T15:24:50.922Z,98016.94
2023-04-10T15:28:54.105Z,98016.19
2023-04-10T15:32:58.923Z,98012.13
2023-04-10T15:37:02.127Z,98009.13
2023-04-10T15:41:10.613Z,98013.66
2023-04-10T15:45:13.769Z,98004.16
2023-04-10T15:49:29.738Z,97997.69
2023-04-10T15:53:37.555Z,97990.41
2023-04-10T15:57:41.140Z,97982.16
2023-04-10T16:01:44.653Z,97991.13
2023-04-10T16:05:49.323Z,97982.06
2023-04-10T16:09:55.201Z,97972.53
2023-04-10T16:13:58.411Z,97980.44
2023-04-10T16:18:01.609Z,97970.06
2023-04-10T16:22:06.604Z,97965.38
2023-04-10T16:26:09.533Z,97957.75
2023-04-10T16:30:14.110Z,97957.50
2023-04-10T16:34:17.485Z,97944.03
2023-04-10T16:38:23.355Z,97953.28
2023-04-10T16:42:26.740Z,97943.28
2023-04-10T16:46:30.464Z,97938.34
2023-04-10T16:50:35.831Z,97933.97
2023-04-10T16:54:40.635Z,97924.16
2023-04-10T16:58:43.507Z,97920.19
2023-04-10T17:02:47.809Z,97906.06
2023-04-10T17:06:51.449Z,97908.72
2023-04-10T17:10:56.197Z,97907.25
2023-04-10T17:14:59.307Z,97903.09
2023-04-10T17:19:02.444Z,97894.84
2023-04-10T17:23:05.579Z,97894.78
2023-04-10T17:27:10.688Z,97894.03
2023-04-10T17:31:14.267Z,97892.78
2023-04-10T17:35:17.894Z,97892.91
2023-04-10T17:39:22.020Z,97891.00
2023-04-10T17:43:26.740Z,97885.44
2023-04-10T17:47:30.305Z,97895.50
2023-04-10T17:51:34.140Z,97900.78
2023-04-10T17:55:40.902Z,97898.03
2023-04-10T17:59:45.982Z,97898.84
2023-04-10T18:03:49.364Z,97894.84
2023-04-10T18:07:52.598Z,97900.00
2023-04-10T18:11:56.363Z,97899.91
2023-04-10T18:16:02.952Z,97898.53
2023-04-10T18:20:06.779Z,97904.94
2023-04-10T18:24:11.031Z,97893.72
2023-04-10T18:28:16.110Z,97893.47
2023-04-10T18:32:22.410Z,97898.22
2023-04-10T18:36:26.708Z,97899.31
2023-04-10T18:40:29.922Z,97898.56
2023-04-10T18:44:34.736Z,97895.72
2023-04-10T18:48:43.967Z,97892.78
2023-04-10T18:52:47.295Z,97895.81
2023-04-10T18:56:51.134Z,97895.16
2023-04-10T19:00:55.552Z,97890.09
2023-04-10T19:05:00.839Z,97885.25
2023-04-10T19:09:04.221Z,97889.06
2023-04-10T19:13:09.647Z,97886.50
2023-04-10T19:17:13.546Z,97891.13
2023-04-10T19:21:18.074Z,97888.34
2023-04-10T19:25:21.897Z,97887.41
2023-04-10T19:29:24.898Z,97888.22
2023-04-10T19:33:27.987Z,97886.59
2023-04-10T19:37:31.212Z,97873.88
2023-04-10T19:41:37.321Z,97869.78
2023-04-10T19:45:41.401Z,97867.34
2023-04-10T19:49:44.750Z,97869.25
2023-04-10T19:53:47.867Z,97855.59
2023-04-10T19:57:53.092Z,97856.69
2023-04-10T20:01:56.761Z,97852.63
2023-04-10T20:06:01.447Z,97849.50
2023-04-10T20:10:04.324Z,97856.25
2023-04-10T20:14:07.275Z,97846.91
2023-04-10T20:18:12.525Z,97842.91
2023-04-10T20:22:15.693Z,97841.66
2023-04-10T20:26:19.862Z,97832.72
2023-04-10T20:30:23.459Z,97831.47
2023-04-10T20:34:28.624Z,97831.78
2023-04-10T20:38:32.434Z,97819.44
2023-04-10T20:42:35.623Z,97807.72
2023-04-10T20:46:38.914Z,97815.19
2023-04-10T20:50:46.897Z,97806.75
2023-04-10T20:54:50.301Z,97807.06
2023-04-10T20:58:54.126Z,97793.16
2023-04-10T21:02:57.511Z,97795.66
2023-04-10T21:07:02.661Z,97786.66
2023-04-10T21:11:06.422Z,97787.38
2023-04-10T21:15:11.084Z,97781.25
2023-04-10T21:19:15.722Z,97784.66
2023-04-10T21:23:20.276Z,97787.16
2023-04-10T21:27:23.698Z,97781.84
2023-04-10T21:31:27.019Z,97780.88
2023-04-10T21:35:30.425Z,97781.31
2023-04-10T21:39:35.422Z,97781.59
2023-04-10T21:43:39.797Z,97783.50
2023-04-10T21:47:43.380Z,97786.22
2023-04-10T21:51:47.342Z,97787.84
2023-04-10T21:55:52.790Z,97778.31
2023-04-10T21:59:56.049Z,97780.06
2023-04-10T22:03:59.517Z,97779.41
2023-04-10T22:08:03.135Z,97772.03
2023-04-10T22:12:08.565Z,97778.59
2023-04-10T22:16:12.022Z,97760.88
2023-04-10T22:20:15.445Z,97760.63
2023-04-10T22:24:18.600Z,97754.31
2023-04-10T22:28:24.021Z,97745.31
2023-04-10T22:32:27.486Z,97739.75
2023-04-10T22:36:33.949Z,97732.50
2023-04-10T22:40:37.416Z,97737.41
2023-04-10T22:44:42.219Z,97746.66
2023-04-10T22:48:51.789Z,97743.09
2023-04-10T22:52:55.386Z,97739.66
2023-04-10T22:56:59.261Z,97738.84
2023-04-10T23:01:04.250Z,97740.31
2023-04-10T23:09:31.619Z,97726.53
2023-04-10T23:13:35.274Z,97721.31
2023-04-10T23:17:40.650Z,97707.53
2023-04-10T23:21:44.326Z,97714.28
2023-04-10T23:25:47.967Z,97717.56
2023-04-10T23:29:51.671Z,97711.94
2023-04-10T23:33:56.608Z,97703.91
2023-04-10T23:38:00.255Z,97694.91
2023-04-10T23:42:04.714Z,97688.59
2023-04-10T23:46:08.532Z,97680.41
2023-04-10T23:50:13.928Z,97675.50
2023-04-10T23:54:17.061Z,97674.13
2023-04-10T23:58:20.507Z,97663.47
